createdAt,value
2023-04-18T00:00:34.894Z,7.43
2023-04-18T00:01:34.897Z,7.43
2023-04-18T00:02:35.013Z,7.43
2023-04-18T00:03:35.030Z,7.45
2023-04-18T00:04:34.902Z,7.45
2023-04-18T00:05:34.876Z,7.45
2023-04-18T00:06:34.807Z,7.46
2023-04-18T00:07:34.792Z,7.46
2023-04-18T00:08:34.831Z,7.46
2023-04-18T00:09:34.852Z,7.46
2023-04-18T00:10:34.750Z,7.45
2023-04-18T00:11:34.748Z,7.46
2023-04-18T00:12:34.738Z,7.43
2023-04-18T00:13:34.717Z,7.43
2023-04-18T00:14:34.702Z,7.42
2023-04-18T00:15:34.696Z,7.40
2023-04-18T00:16:34.695Z,7.40
2023-04-18T00:17:34.695Z,7.43
2023-04-18T00:18:34.642Z,7.43
2023-04-18T00:19:34.629Z,7.40
2023-04-18T00:20:34.624Z,7.40
2023-04-18T00:21:34.609Z,7.39
2023-04-18T00:22:34.598Z,7.37
2023-04-18T00:23:34.582Z,7.37
2023-04-18T00:24:34.564Z,7.39
2023-04-18T00:25:34.577Z,7.39
2023-04-18T00:26:34.532Z,7.40
2023-04-18T00:27:34.521Z,7.39
2023-04-18T00:28:34.515Z,7.40
2023-04-18T00:29:34.500Z,7.37
2023-04-18T00:30:34.517Z,7.35
2023-04-18T00:31:34.465Z,7.32
2023-04-18T00:32:34.494Z,7.32
2023-04-18T00:33:34.449Z,7.32
2023-04-18T00:34:34.434Z,7.34
2023-04-18T00:35:34.435Z,7.32
2023-04-18T00:36:34.408Z,7.31
2023-04-18T00:37:34.423Z,7.28
2023-04-18T00:38:34.379Z,7.28
2023-04-18T00:39:34.401Z,7.30
2023-04-18T00:40:34.358Z,7.30
2023-04-18T00:41:34.352Z,7.31
2023-04-18T00:42:34.321Z,7.30
2023-04-18T00:43:42.324Z,7.27
2023-04-18T00:44:41.812Z,7.24
2023-04-18T00:45:34.301Z,7.24
2023-04-18T00:46:34.322Z,7.23
2023-04-18T00:47:34.270Z,7.23
2023-04-18T00:48:34.262Z,7.23
2023-04-18T00:49:34.238Z,7.16
2023-04-18T00:50:34.230Z,7.16
2023-04-18T00:51:34.211Z,7.17
2023-04-18T00:52:34.189Z,7.15
2023-04-18T00:53:34.181Z,7.16
2023-04-18T00:54:34.164Z,7.15
2023-04-18T00:55:34.170Z,7.15
2023-04-18T00:56:34.137Z,7.13
2023-04-18T00:57:34.131Z,7.13
2023-04-18T00:58:34.107Z,7.12
2023-04-18T00:59:34.091Z,7.15
2023-04-18T01:00:34.101Z,7.13
2023-04-18T01:01:34.155Z,7.15
2023-04-18T01:02:34.275Z,7.13
2023-04-18T01:03:34.260Z,7.12
2023-04-18T01:04:34.071Z,7.12
2023-04-18T01:05:34.027Z,7.13
2023-04-18T01:06:34.009Z,7.13
2023-04-18T01:07:33.996Z,7.13
2023-04-18T01:08:33.982Z,7.12
2023-04-18T01:09:33.973Z,7.12
2023-04-18T01:10:33.976Z,7.10
2023-04-18T01:11:33.936Z,7.10
2023-04-18T01:12:33.923Z,7.12
2023-04-18T01:13:33.912Z,7.10
2023-04-18T01:14:33.910Z,7.10
2023-04-18T01:15:33.911Z,7.09
2023-04-18T01:16:33.888Z,7.10
2023-04-18T01:17:33.873Z,7.09
2023-04-18T01:18:33.848Z,7.06
2023-04-18T01:19:33.846Z,7.06
2023-04-18T01:20:33.836Z,7.05
2023-04-18T01:21:33.944Z,7.05
2023-04-18T01:22:33.804Z,7.02
2023-04-18T01:23:34.029Z,6.99
2023-04-18T01:24:33.773Z,6.97
2023-04-18T01:25:33.762Z,6.95
2023-04-18T01:26:33.747Z,6.94
2023-04-18T01:27:33.719Z,6.95
2023-04-18T01:28:33.718Z,6.92
2023-04-18T01:29:33.700Z,6.88
2023-04-18T01:30:33.709Z,6.88
2023-04-18T01:31:33.741Z,6.88
2023-04-18T01:32:33.718Z,6.85
2023-04-18T01:33:33.664Z,6.84
2023-04-18T01:34:33.652Z,6.81
2023-04-18T01:35:33.656Z,6.81
2023-04-18T01:36:33.659Z,6.80
2023-04-18T01:37:33.647Z,6.81
2023-04-18T01:38:41.115Z,6.80
2023-04-18T01:39:41.120Z,6.79
2023-04-18T01:40:42.302Z,6.76
2023-04-18T01:41:41.056Z,6.74
2023-04-18T01:42:33.533Z,6.73
2023-04-18T01:43:33.584Z,6.71
2023-04-18T01:44:33.545Z,6.71
2023-04-18T01:45:33.517Z,6.71
2023-04-18T01:46:33.596Z,6.70
2023-04-18T01:47:33.514Z,6.73
2023-04-18T01:48:33.485Z,6.71
2023-04-18T01:49:33.454Z,6.71
2023-04-18T01:50:33.507Z,6.71
2023-04-18T01:51:33.432Z,6.71
2023-04-18T01:52:33.406Z,6.70
2023-04-18T01:53:33.412Z,6.71
2023-04-18T01:54:33.389Z,6.69
2023-04-18T01:55:33.374Z,6.69
2023-04-18T01:56:33.364Z,6.71
2023-04-18T01:57:33.354Z,6.69
2023-04-18T01:58:40.851Z,6.69
2023-04-18T01:59:40.850Z,6.70
2023-04-18T02:00:33.356Z,6.69
2023-04-18T02:01:33.305Z,6.70
2023-04-18T02:02:33.510Z,6.71
2023-04-18T02:03:33.465Z,6.70
2023-04-18T02:04:33.317Z,6.70
2023-04-18T02:05:33.290Z,6.69
2023-04-18T02:06:33.223Z,6.71
2023-04-18T02:07:33.351Z,6.70
2023-04-18T02:08:33.244Z,6.70
2023-04-18T02:09:33.197Z,6.70
2023-04-18T02:10:33.200Z,6.73
2023-04-18T02:11:33.162Z,6.71
2023-04-18T02:12:33.150Z,6.74
2023-04-18T02:13:33.140Z,6.74
2023-04-18T02:14:33.144Z,6.77
2023-04-18T02:15:33.118Z,6.74
2023-04-18T02:16:33.129Z,6.77
2023-04-18T02:17:33.148Z,6.77
2023-04-18T02:18:33.063Z,6.77
2023-04-18T02:19:33.043Z,6.79
2023-04-18T02:20:33.047Z,6.77
2023-04-18T02:21:33.016Z,6.77
2023-04-18T02:22:33.008Z,6.80
2023-04-18T02:23:32.993Z,6.79
2023-04-18T02:24:33.009Z,6.81
2023-04-18T02:25:32.973Z,6.79
2023-04-18T02:26:32.970Z,6.80
2023-04-18T02:27:32.949Z,6.81
2023-04-18T02:28:32.947Z,6.79
2023-04-18T02:29:32.918Z,6.81
2023-04-18T02:30:32.912Z,6.81
2023-04-18T02:31:32.952Z,6.84
2023-04-18T02:32:32.938Z,6.81
2023-04-18T02:33:32.967Z,6.81
2023-04-18T02:34:32.849Z,6.84
2023-04-18T02:35:32.843Z,6.81
2023-04-18T02:36:33.865Z,6.84
2023-04-18T02:37:32.820Z,6.81
2023-04-18T02:38:32.800Z,6.84
2023-04-18T02:39:32.786Z,6.79
2023-04-18T02:40:32.784Z,6.81
2023-04-18T02:41:32.766Z,6.80
2023-04-18T02:42:32.755Z,6.81
2023-04-18T02:43:32.733Z,6.81
2023-04-18T02:44:32.718Z,6.79
2023-04-18T02:45:32.770Z,6.79
2023-04-18T02:46:32.692Z,6.79
2023-04-18T02:47:40.479Z,6.80
2023-04-18T02:48:33.687Z,6.79
2023-04-18T02:49:32.653Z,6.81
2023-04-18T02:50:32.656Z,6.81
2023-04-18T02:51:32.624Z,6.84
2023-04-18T02:52:32.610Z,6.85
2023-04-18T02:53:32.608Z,6.85
2023-04-18T02:54:32.584Z,6.87
2023-04-18T02:55:32.570Z,6.85
2023-04-18T02:56:32.560Z,6.87
2023-04-18T02:57:32.544Z,6.87
2023-04-18T02:58:32.583Z,6.87
2023-04-18T02:59:32.515Z,6.87
2023-04-18T03:00:32.516Z,6.87
2023-04-18T03:01:32.505Z,6.88
2023-04-18T03:02:32.619Z,6.88
2023-04-18T03:03:32.506Z,6.85
2023-04-18T03:04:32.487Z,6.88
2023-04-18T03:05:32.447Z,6.87
2023-04-18T03:06:32.420Z,6.87
2023-04-18T03:07:32.414Z,6.87
2023-04-18T03:08:32.398Z,6.87
2023-04-18T03:09:32.382Z,6.85
2023-04-18T03:10:32.435Z,6.87
2023-04-18T03:11:32.361Z,6.85
2023-04-18T03:12:39.352Z,6.85
2023-04-18T03:13:40.349Z,6.84
2023-04-18T03:14:32.331Z,6.87
2023-04-18T03:15:32.326Z,6.87
2023-04-18T03:16:32.301Z,6.87
2023-04-18T03:17:32.334Z,6.87
2023-04-18T03:18:32.275Z,6.87
2023-04-18T03:19:32.258Z,6.87
2023-04-18T03:20:32.260Z,6.88
2023-04-18T03:21:32.217Z,6.87
2023-04-18T03:22:32.241Z,6.88
2023-04-18T03:23:32.199Z,6.88
2023-04-18T03:24:32.194Z,6.87
2023-04-18T03:25:32.181Z,6.87
2023-04-18T03:26:32.162Z,6.87
2023-04-18T03:27:32.141Z,6.85
2023-04-18T03:28:32.140Z,6.85
2023-04-18T03:29:32.119Z,6.87
2023-04-18T03:30:32.121Z,6.84
2023-04-18T03:31:32.123Z,6.85
2023-04-18T03:32:32.113Z,6.85
2023-04-18T03:33:32.074Z,6.81
2023-04-18T03:34:32.061Z,6.84
2023-04-18T03:35:32.050Z,6.84
2023-04-18T03:36:32.026Z,6.87
2023-04-18T03:37:32.011Z,6.87
2023-04-18T03:38:32.000Z,6.87
2023-04-18T03:39:31.985Z,6.85
2023-04-18T03:40:31.997Z,6.87
2023-04-18T03:41:31.958Z,6.87
2023-04-18T03:42:31.950Z,6.87
2023-04-18T03:43:31.930Z,6.87
2023-04-18T03:44:31.921Z,6.84
2023-04-18T03:45:31.917Z,6.85
2023-04-18T03:46:31.918Z,6.84
2023-04-18T03:47:31.922Z,6.81
2023-04-18T03:48:31.867Z,6.85
2023-04-18T03:49:31.895Z,6.84
2023-04-18T03:50:31.855Z,6.84
2023-04-18T03:51:31.821Z,6.81
2023-04-18T03:52:31.817Z,6.81
2023-04-18T03:53:31.800Z,6.85
2023-04-18T03:54:31.790Z,6.81
2023-04-18T03:55:31.788Z,6.84
2023-04-18T03:56:31.768Z,6.85
2023-04-18T03:57:31.757Z,6.85
2023-04-18T03:58:31.742Z,6.85
2023-04-18T03:59:31.729Z,6.84
2023-04-18T04:00:31.743Z,6.84
2023-04-18T04:01:31.739Z,6.81
2023-04-18T04:02:31.791Z,6.80
2023-04-18T04:03:31.830Z,6.81
2023-04-18T04:04:31.726Z,6.84
2023-04-18T04:05:31.644Z,6.85
2023-04-18T04:06:31.639Z,6.84
2023-04-18T04:07:31.624Z,6.85
2023-04-18T04:08:31.614Z,6.85
2023-04-18T04:09:31.611Z,6.84
2023-04-18T04:10:31.589Z,6.84
2023-04-18T04:11:31.582Z,6.85
2023-04-18T04:12:31.563Z,6.85
2023-04-18T04:13:31.545Z,6.87
2023-04-18T04:14:31.530Z,6.88
2023-04-18T04:15:31.517Z,6.88
2023-04-18T04:16:31.559Z,6.88
2023-04-18T04:17:31.542Z,6.89
2023-04-18T04:18:31.503Z,6.87
2023-04-18T04:19:31.468Z,6.87
2023-04-18T04:20:31.458Z,6.89
2023-04-18T04:21:31.447Z,6.88
2023-04-18T04:22:31.437Z,6.88
2023-04-18T04:23:31.411Z,6.87
2023-04-18T04:24:38.403Z,6.88
2023-04-18T04:25:31.382Z,6.88
2023-04-18T04:26:31.379Z,6.88
2023-04-18T04:27:31.357Z,6.87
2023-04-18T04:28:31.351Z,6.87
2023-04-18T04:29:31.326Z,6.87
2023-04-18T04:30:31.324Z,6.85
2023-04-18T04:31:31.350Z,6.88
2023-04-18T04:32:31.334Z,6.88
2023-04-18T04:33:31.279Z,6.88
2023-04-18T04:34:31.290Z,6.89
2023-04-18T04:35:31.244Z,6.89
2023-04-18T04:36:31.251Z,6.88
2023-04-18T04:37:31.217Z,6.88
2023-04-18T04:38:31.317Z,6.89
2023-04-18T04:39:31.193Z,6.89
2023-04-18T04:40:31.180Z,6.91
2023-04-18T04:41:31.181Z,6.89
2023-04-18T04:42:31.163Z,6.89
2023-04-18T04:43:31.140Z,6.88
2023-04-18T04:44:31.151Z,6.87
2023-04-18T04:45:31.171Z,6.88
2023-04-18T04:46:31.113Z,6.87
2023-04-18T04:47:31.193Z,6.88
2023-04-18T04:48:31.085Z,6.85
2023-04-18T04:49:31.061Z,6.87
2023-04-18T04:50:31.054Z,6.85
2023-04-18T04:51:31.040Z,6.85
2023-04-18T04:52:31.024Z,6.84
2023-04-18T04:53:31.006Z,6.85
2023-04-18T04:54:30.997Z,6.87
2023-04-18T04:55:30.980Z,6.87
2023-04-18T04:56:30.987Z,6.89
2023-04-18T04:57:30.977Z,6.88
2023-04-18T04:58:30.966Z,6.87
2023-04-18T04:59:30.928Z,6.85
2023-04-18T05:00:30.911Z,6.87
2023-04-18T05:01:30.969Z,6.85
2023-04-18T05:02:31.063Z,6.84
2023-04-18T05:03:31.006Z,6.84
2023-04-18T05:04:30.987Z,6.85
2023-04-18T05:05:30.862Z,6.85
2023-04-18T05:06:30.856Z,6.84
2023-04-18T05:07:30.833Z,6.84
2023-04-18T05:08:30.821Z,6.84
2023-04-18T05:09:30.799Z,6.84
2023-04-18T05:10:30.784Z,6.87
2023-04-18T05:11:30.808Z,6.87
2023-04-18T05:12:30.771Z,6.87
2023-04-18T05:13:30.757Z,6.87
2023-04-18T05:14:30.733Z,6.87
2023-04-18T05:15:30.741Z,6.88
2023-04-18T05:16:30.753Z,6.88
2023-04-18T05:17:30.718Z,6.88
2023-04-18T05:18:32.053Z,6.87
2023-04-18T05:19:30.660Z,6.88
2023-04-18T05:20:30.662Z,6.88
2023-04-18T05:21:30.637Z,6.88
2023-04-18T05:22:30.625Z,6.85
2023-04-18T05:23:30.639Z,6.88
2023-04-18T05:24:30.592Z,6.87
2023-04-18T05:25:30.604Z,6.88
2023-04-18T05:26:30.582Z,6.88
2023-04-18T05:27:30.563Z,6.91
2023-04-18T05:28:30.543Z,6.91
2023-04-18T05:29:30.539Z,6.91
2023-04-18T05:30:30.526Z,6.88
2023-04-18T05:31:30.705Z,6.89
2023-04-18T05:32:30.559Z,6.89
2023-04-18T05:33:30.482Z,6.87
2023-04-18T05:34:30.459Z,6.85
2023-04-18T05:35:30.512Z,6.87
2023-04-18T05:36:30.439Z,6.87
2023-04-18T05:37:38.961Z,6.84
2023-04-18T05:38:30.424Z,6.84
2023-04-18T05:39:30.428Z,6.87
2023-04-18T05:40:30.437Z,6.87
2023-04-18T05:41:30.392Z,6.87
2023-04-18T05:42:30.408Z,6.89
2023-04-18T05:43:30.384Z,6.91
2023-04-18T05:44:30.349Z,6.89
2023-04-18T05:45:30.361Z,6.94
2023-04-18T05:46:30.381Z,6.95
2023-04-18T05:47:30.400Z,6.94
2023-04-18T05:48:30.291Z,6.95
2023-04-18T05:49:30.280Z,6.97
2023-04-18T05:50:30.271Z,6.99
2023-04-18T05:51:30.277Z,7.05
2023-04-18T05:52:30.237Z,7.05
2023-04-18T05:53:30.228Z,7.06
2023-04-18T05:54:30.213Z,7.09
2023-04-18T05:55:30.217Z,7.07
2023-04-18T05:56:30.181Z,7.10
2023-04-18T05:57:30.173Z,7.12
2023-04-18T05:58:30.148Z,7.12
2023-04-18T05:59:30.151Z,7.13
2023-04-18T06:00:30.144Z,7.15
2023-04-18T06:01:30.127Z,7.16
2023-04-18T06:02:30.218Z,7.21
2023-04-18T06:03:30.197Z,7.23
2023-04-18T06:04:30.308Z,7.23
2023-04-18T06:05:30.295Z,7.21
2023-04-18T06:06:30.053Z,7.21
2023-04-18T06:07:30.050Z,7.24
2023-04-18T06:08:30.017Z,7.27
2023-04-18T06:09:30.031Z,7.27
2023-04-18T06:10:30.005Z,7.25
2023-04-18T06:11:29.990Z,7.28
2023-04-18T06:12:29.967Z,7.32
2023-04-18T06:13:29.969Z,7.31
2023-04-18T06:14:29.940Z,7.35
2023-04-18T06:15:29.954Z,7.42
2023-04-18T06:16:30.010Z,7.49
2023-04-18T06:17:29.940Z,7.55
2023-04-18T06:18:29.886Z,7.60
2023-04-18T06:19:29.881Z,7.61
2023-04-18T06:20:29.868Z,7.67
2023-04-18T06:21:29.871Z,7.68
2023-04-18T06:22:29.840Z,7.69
2023-04-18T06:23:29.838Z,7.67
2023-04-18T06:24:31.284Z,7.71
2023-04-18T06:25:29.820Z,7.71
2023-04-18T06:26:29.793Z,7.77
2023-04-18T06:27:31.906Z,7.82
2023-04-18T06:28:29.770Z,7.85
2023-04-18T06:29:29.758Z,7.85
2023-04-18T06:30:29.897Z,7.86
2023-04-18T06:31:29.781Z,7.93
2023-04-18T06:32:29.756Z,8.00
2023-04-18T06:33:29.711Z,8.02
2023-04-18T06:34:29.694Z,8.07
2023-04-18T06:35:29.693Z,8.07
2023-04-18T06:36:29.669Z,8.08
2023-04-18T06:37:29.672Z,8.10
2023-04-18T06:38:29.640Z,8.11
2023-04-18T06:39:29.664Z,8.12
2023-04-18T06:40:29.695Z,8.18
2023-04-18T06:41:29.617Z,8.29
2023-04-18T06:42:29.609Z,8.41
2023-04-18T06:43:29.608Z,8.56
2023-04-18T06:44:29.586Z,8.65
2023-04-18T06:45:29.575Z,8.79
2023-04-18T06:46:29.688Z,8.76
2023-04-18T06:47:29.600Z,8.76
2023-04-18T06:48:29.511Z,8.73
2023-04-18T06:49:29.537Z,8.79
2023-04-18T06:50:29.529Z,8.80
2023-04-18T06:51:29.481Z,8.71
2023-04-18T06:52:29.449Z,8.55
2023-04-18T06:53:36.944Z,8.52
2023-04-18T06:54:37.959Z,8.52
2023-04-18T06:55:36.928Z,8.50
2023-04-18T06:56:38.096Z,8.52
2023-04-18T06:57:36.892Z,8.59
2023-04-18T06:58:36.882Z,8.63
2023-04-18T06:59:29.367Z,8.58
2023-04-18T07:00:29.483Z,8.59
2023-04-18T07:01:29.396Z,8.59
2023-04-18T07:02:29.382Z,8.53
2023-04-18T07:03:29.433Z,8.53
2023-04-18T07:04:29.338Z,8.48
2023-04-18T07:05:29.297Z,8.59
2023-04-18T07:06:29.295Z,8.63
2023-04-18T07:07:29.258Z,8.68
2023-04-18T07:08:29.272Z,8.71
2023-04-18T07:09:29.244Z,8.79
2023-04-18T07:10:29.311Z,8.91
2023-04-18T07:11:29.259Z,8.89
2023-04-18T07:12:29.207Z,8.91
2023-04-18T07:13:29.223Z,8.89
2023-04-18T07:14:29.208Z,8.94
2023-04-18T07:15:29.161Z,9.08
2023-04-18T07:16:29.198Z,9.17
2023-04-18T07:17:29.189Z,9.29
2023-04-18T07:18:37.635Z,9.26
2023-04-18T07:19:30.110Z,9.17
2023-04-18T07:20:29.136Z,9.02
2023-04-18T07:21:29.077Z,9.02
2023-04-18T07:22:29.078Z,8.98
2023-04-18T07:23:29.077Z,8.96
2023-04-18T07:24:29.038Z,8.98
2023-04-18T07:25:29.052Z,8.84
2023-04-18T07:26:29.018Z,8.70
2023-04-18T07:27:29.011Z,8.70
2023-04-18T07:28:28.976Z,8.59
2023-04-18T07:29:29.048Z,8.65
2023-04-18T07:30:28.966Z,8.65
2023-04-18T07:31:28.988Z,8.65
2023-04-18T07:32:28.956Z,8.73
2023-04-18T07:33:28.913Z,8.74
2023-04-18T07:34:28.890Z,8.77
2023-04-18T07:35:28.912Z,8.81
2023-04-18T07:36:28.936Z,8.74
2023-04-18T07:37:28.869Z,8.80
2023-04-18T07:38:28.846Z,8.83
2023-04-18T07:39:28.838Z,8.95
2023-04-18T07:40:28.805Z,8.99
2023-04-18T07:41:28.892Z,9.01
2023-04-18T07:42:28.782Z,9.01
2023-04-18T07:43:28.777Z,8.87
2023-04-18T07:44:28.759Z,8.89
2023-04-18T07:45:28.752Z,8.99
2023-04-18T07:46:28.798Z,9.10
2023-04-18T07:47:30.288Z,9.17
2023-04-18T07:48:28.708Z,9.28
2023-04-18T07:49:28.687Z,9.29
2023-04-18T07:50:28.686Z,9.43
2023-04-18T07:51:28.685Z,9.48
2023-04-18T07:52:28.700Z,9.33
2023-04-18T07:53:28.643Z,9.29
2023-04-18T07:54:28.646Z,9.36
2023-04-18T07:55:28.634Z,9.42
2023-04-18T07:56:28.648Z,9.47
2023-04-18T07:57:28.612Z,9.53
2023-04-18T07:58:28.574Z,9.58
2023-04-18T07:59:28.593Z,9.65
2023-04-18T08:00:28.554Z,9.68
2023-04-18T08:01:28.604Z,9.78
2023-04-18T08:02:28.748Z,9.79
2023-04-18T08:03:28.750Z,9.86
2023-04-18T08:04:30.103Z,9.90
2023-04-18T08:05:28.513Z,9.89
2023-04-18T08:06:28.534Z,9.91
2023-04-18T08:07:28.471Z,9.89
2023-04-18T08:08:28.445Z,9.83
2023-04-18T08:09:28.427Z,9.86
2023-04-18T08:10:28.507Z,10.01
2023-04-18T08:11:28.426Z,10.04
2023-04-18T08:12:28.379Z,10.02
2023-04-18T08:13:28.397Z,9.90
2023-04-18T08:14:28.382Z,9.90
2023-04-18T08:15:28.355Z,9.99
2023-04-18T08:16:28.388Z,10.01
2023-04-18T08:17:28.357Z,10.15
2023-04-18T08:18:28.304Z,10.14
2023-04-18T08:19:28.320Z,10.18
2023-04-18T08:20:28.270Z,10.20
2023-04-18T08:21:28.276Z,10.32
2023-04-18T08:22:28.259Z,10.36
2023-04-18T08:23:28.246Z,10.33
2023-04-18T08:24:28.231Z,10.36
2023-04-18T08:25:28.214Z,10.34
2023-04-18T08:26:28.216Z,10.42
2023-04-18T08:27:28.194Z,10.47
2023-04-18T08:28:28.188Z,10.60
2023-04-18T08:29:28.218Z,10.61
2023-04-18T08:30:28.175Z,10.45
2023-04-18T08:31:28.190Z,10.51
2023-04-18T08:32:28.157Z,10.55
2023-04-18T08:33:28.103Z,10.48
2023-04-18T08:34:28.107Z,10.60
2023-04-18T08:35:28.116Z,10.56
2023-04-18T08:36:28.078Z,10.47
2023-04-18T08:37:28.103Z,10.48
2023-04-18T08:38:28.044Z,10.63
2023-04-18T08:39:28.066Z,10.78
2023-04-18T08:40:28.028Z,10.89
2023-04-18T08:41:28.013Z,10.99
2023-04-18T08:42:27.992Z,10.99
2023-04-18T08:43:27.969Z,10.96
2023-04-18T08:44:27.960Z,11.11
2023-04-18T08:45:27.951Z,11.17
2023-04-18T08:46:27.968Z,11.29
2023-04-18T08:47:27.950Z,11.28
2023-04-18T08:48:27.897Z,11.28
2023-04-18T08:49:27.889Z,11.29
2023-04-18T08:50:27.905Z,11.62
2023-04-18T08:51:27.865Z,11.76
2023-04-18T08:52:27.839Z,11.75
2023-04-18T08:53:27.830Z,11.96
2023-04-18T08:54:27.819Z,11.94
2023-04-18T08:55:27.808Z,11.88
2023-04-18T08:56:27.815Z,12.04
2023-04-18T08:57:27.781Z,12.07
2023-04-18T08:58:27.770Z,12.20
2023-04-18T08:59:27.745Z,12.23
2023-04-18T09:00:27.732Z,12.37
2023-04-18T09:01:27.742Z,12.32
2023-04-18T09:02:27.760Z,12.42
2023-04-18T09:03:27.727Z,12.53
2023-04-18T09:04:27.714Z,12.35
2023-04-18T09:05:27.685Z,12.07
2023-04-18T09:06:27.917Z,12.09
2023-04-18T09:07:27.630Z,12.02
2023-04-18T09:08:27.628Z,12.07
2023-04-18T09:09:27.613Z,12.14
2023-04-18T09:10:27.609Z,11.88
2023-04-18T09:11:27.600Z,11.76
2023-04-18T09:12:27.592Z,11.60
2023-04-18T09:13:27.561Z,11.60
2023-04-18T09:14:27.549Z,11.70
2023-04-18T09:15:27.534Z,11.82
2023-04-18T09:16:27.889Z,11.95
2023-04-18T09:17:27.565Z,12.04
2023-04-18T09:18:27.497Z,12.19
2023-04-18T09:19:27.482Z,12.17
2023-04-18T09:20:27.467Z,12.09
2023-04-18T09:21:27.491Z,11.99
2023-04-18T09:22:27.450Z,12.02
2023-04-18T09:23:27.484Z,11.80
2023-04-18T09:24:27.472Z,11.72
2023-04-18T09:25:27.505Z,11.79
2023-04-18T09:26:27.504Z,11.78
2023-04-18T09:27:27.444Z,11.75
2023-04-18T09:28:27.381Z,11.78
2023-04-18T09:29:27.348Z,11.83
2023-04-18T09:30:27.344Z,11.72
2023-04-18T09:31:27.342Z,11.70
2023-04-18T09:32:27.475Z,11.64
2023-04-18T09:33:27.299Z,11.61
2023-04-18T09:34:27.294Z,11.64
2023-04-18T09:35:27.264Z,11.65
2023-04-18T09:36:27.610Z,11.67
2023-04-18T09:37:27.271Z,11.67
2023-04-18T09:38:27.231Z,11.52
2023-04-18T09:39:27.217Z,11.51
2023-04-18T09:40:27.209Z,11.54
2023-04-18T09:41:27.206Z,11.39
2023-04-18T09:42:28.898Z,11.22
2023-04-18T09:43:27.161Z,11.22
2023-04-18T09:44:27.153Z,11.33
2023-04-18T09:45:27.181Z,11.40
2023-04-18T09:46:27.295Z,11.42
2023-04-18T09:47:27.139Z,11.58
2023-04-18T09:48:27.098Z,11.65
2023-04-18T09:49:27.089Z,11.75
2023-04-18T09:50:27.070Z,11.70
2023-04-18T09:51:27.055Z,11.75
2023-04-18T09:52:27.058Z,11.69
2023-04-18T09:53:27.032Z,11.60
2023-04-18T09:54:27.040Z,11.42
2023-04-18T09:55:27.003Z,11.42
2023-04-18T09:56:26.990Z,11.42
2023-04-18T09:57:27.009Z,11.44
2023-04-18T09:58:26.981Z,11.35
2023-04-18T09:59:26.967Z,11.22
2023-04-18T10:00:26.956Z,11.19
2023-04-18T10:01:26.942Z,11.22
2023-04-18T10:02:27.025Z,11.18
2023-04-18T10:03:26.946Z,11.18
2023-04-18T10:04:26.934Z,11.19
2023-04-18T10:05:26.949Z,11.21
2023-04-18T10:06:26.966Z,11.14
2023-04-18T10:07:26.898Z,11.14
2023-04-18T10:08:26.836Z,11.11
2023-04-18T10:09:26.812Z,11.32
2023-04-18T10:10:26.814Z,11.24
2023-04-18T10:11:26.797Z,11.04
2023-04-18T10:12:26.796Z,11.06
2023-04-18T10:13:26.762Z,11.03
2023-04-18T10:14:28.405Z,11.15
2023-04-18T10:15:26.876Z,11.28
2023-04-18T10:16:26.778Z,11.35
2023-04-18T10:18:26.780Z,11.22
2023-04-18T10:19:26.685Z,11.27
2023-04-18T10:20:26.674Z,11.33
2023-04-18T10:21:26.662Z,11.19
2023-04-18T10:22:26.654Z,11.10
2023-04-18T10:23:28.101Z,11.00
2023-04-18T10:24:26.616Z,10.97
2023-04-18T10:25:26.600Z,10.99
2023-04-18T10:26:26.586Z,10.97
2023-04-18T10:27:26.582Z,11.04
2023-04-18T10:28:26.561Z,11.03
2023-04-18T10:29:26.545Z,11.07
2023-04-18T10:30:26.541Z,11.14
2023-04-18T10:31:26.575Z,11.15
2023-04-18T10:32:26.526Z,10.91
2023-04-18T10:33:30.880Z,10.91
2023-04-18T10:34:27.496Z,11.02
2023-04-18T10:35:26.462Z,11.06
2023-04-18T10:36:26.455Z,11.11
2023-04-18T10:37:26.456Z,11.18
2023-04-18T10:38:26.434Z,11.21
2023-04-18T10:39:26.420Z,11.25
2023-04-18T10:40:26.407Z,11.25
2023-04-18T10:41:26.396Z,11.10
2023-04-18T10:42:26.414Z,11.18
2023-04-18T10:43:26.373Z,11.17
2023-04-18T10:44:26.354Z,11.18
2023-04-18T10:45:26.335Z,11.21
2023-04-18T10:46:32.389Z,11.27
2023-04-18T10:47:27.426Z,11.27
2023-04-18T10:48:26.292Z,11.35
2023-04-18T10:49:27.852Z,11.35
2023-04-18T10:50:26.275Z,11.40
2023-04-18T10:51:26.258Z,11.28
2023-04-18T10:52:26.262Z,11.28
2023-04-18T10:53:26.234Z,11.25
2023-04-18T10:54:26.233Z,11.22
2023-04-18T10:55:26.246Z,11.11
2023-04-18T10:56:26.220Z,10.91
2023-04-18T10:57:26.192Z,10.92
2023-04-18T10:58:26.173Z,10.97
2023-04-18T10:59:26.150Z,10.96
2023-04-18T11:00:26.157Z,11.02
2023-04-18T11:01:27.490Z,10.99
2023-04-18T11:02:26.273Z,11.07
2023-04-18T11:03:26.205Z,11.17
2023-04-18T11:04:26.158Z,11.29
2023-04-18T11:05:26.122Z,11.37
2023-04-18T11:06:26.070Z,11.42
2023-04-18T11:07:26.455Z,11.43
2023-04-18T11:08:26.040Z,11.44
2023-04-18T11:09:26.024Z,11.32
2023-04-18T11:10:26.011Z,11.33
2023-04-18T11:11:25.995Z,11.39
2023-04-18T11:12:25.994Z,11.42
2023-04-18T11:13:25.966Z,11.39
2023-04-18T11:14:25.952Z,11.46
2023-04-18T11:15:25.972Z,11.47
2023-04-18T11:16:25.973Z,11.43
2023-04-18T11:17:25.944Z,11.46
2023-04-18T11:18:25.909Z,11.36
2023-04-18T11:19:25.896Z,11.32
2023-04-18T11:20:25.878Z,11.32
2023-04-18T11:21:25.868Z,11.36
2023-04-18T11:22:25.898Z,11.39
2023-04-18T11:23:25.848Z,11.47
2023-04-18T11:24:25.824Z,11.57
2023-04-18T11:25:25.840Z,11.64
2023-04-18T11:26:25.837Z,11.69
2023-04-18T11:27:25.810Z,11.61
2023-04-18T11:28:25.790Z,11.61
2023-04-18T11:29:25.754Z,11.67
2023-04-18T11:30:25.744Z,11.67
2023-04-18T11:31:25.776Z,11.64
2023-04-18T11:32:25.828Z,11.64
2023-04-18T11:33:25.704Z,11.67
2023-04-18T11:34:25.694Z,11.67
2023-04-18T11:35:25.680Z,11.67
2023-04-18T11:36:25.808Z,11.75
2023-04-18T11:37:25.660Z,11.79
2023-04-18T11:38:25.648Z,11.85
2023-04-18T11:39:25.629Z,11.90
2023-04-18T11:40:25.611Z,11.96
2023-04-18T11:41:25.595Z,11.96
2023-04-18T11:42:25.593Z,12.12
2023-04-18T11:43:25.632Z,12.20
2023-04-18T11:44:25.557Z,12.31
2023-04-18T11:45:25.540Z,12.39
2023-04-18T11:46:25.589Z,12.38
2023-04-18T11:47:25.544Z,12.39
2023-04-18T11:48:25.525Z,12.39
2023-04-18T11:49:25.491Z,12.45
2023-04-18T11:50:25.486Z,12.47
2023-04-18T11:51:25.475Z,12.47
2023-04-18T11:52:25.532Z,12.32
2023-04-18T11:53:25.441Z,12.35
2023-04-18T11:54:25.426Z,12.41
2023-04-18T11:55:25.566Z,12.53
2023-04-18T11:56:25.408Z,12.62
2023-04-18T11:57:25.410Z,12.57
2023-04-18T11:58:25.383Z,12.57
2023-04-18T11:59:25.351Z,12.62
2023-04-18T12:00:25.350Z,12.64
2023-04-18T12:01:25.345Z,12.64
2023-04-18T12:02:25.443Z,12.38
2023-04-18T12:03:25.626Z,12.52
2023-04-18T12:04:25.614Z,12.71
2023-04-18T12:05:25.431Z,13.11
2023-04-18T12:06:25.362Z,13.48
2023-04-18T12:07:25.249Z,13.78
2023-04-18T12:08:25.239Z,14.10
2023-04-18T12:09:25.224Z,14.20
2023-04-18T12:10:25.230Z,14.24
2023-04-18T12:11:25.197Z,14.22
2023-04-18T12:12:25.194Z,14.29
2023-04-18T12:13:25.169Z,14.50
2023-04-18T12:14:25.178Z,14.60
2023-04-18T12:15:25.141Z,14.84
2023-04-18T12:16:25.172Z,14.86
2023-04-18T12:17:25.195Z,14.81
2023-04-18T12:18:25.112Z,14.77
2023-04-18T12:19:25.099Z,14.61
2023-04-18T12:20:25.202Z,14.54
2023-04-18T12:21:25.081Z,14.61
2023-04-18T12:22:25.060Z,14.47
2023-04-18T12:23:25.048Z,14.62
2023-04-18T12:24:25.541Z,14.61
2023-04-18T12:25:27.112Z,14.51
2023-04-18T12:26:25.023Z,14.43
2023-04-18T12:27:24.984Z,14.39
2023-04-18T12:28:24.977Z,14.36
2023-04-18T12:29:24.990Z,13.96
2023-04-18T12:30:25.007Z,13.73
2023-04-18T12:31:25.013Z,13.39
2023-04-18T12:32:24.991Z,13.19
2023-04-18T12:33:24.902Z,13.44
2023-04-18T12:34:24.947Z,13.92
2023-04-18T12:35:24.878Z,14.17
2023-04-18T12:36:24.878Z,14.43
2023-04-18T12:37:24.849Z,14.46
2023-04-18T12:38:24.843Z,14.55
2023-04-18T12:39:24.832Z,14.54
2023-04-18T12:40:24.819Z,14.55
2023-04-18T12:41:24.795Z,14.45
2023-04-18T12:42:32.289Z,14.37
2023-04-18T12:43:32.297Z,14.45
2023-04-18T12:44:32.255Z,14.73
2023-04-18T12:45:24.786Z,15.01
2023-04-18T12:46:24.802Z,14.92
2023-04-18T12:47:24.720Z,14.99
2023-04-18T12:48:24.713Z,15.01
2023-04-18T12:49:24.735Z,15.16
2023-04-18T12:50:24.703Z,15.01
2023-04-18T12:51:24.667Z,14.96
2023-04-18T12:52:24.656Z,14.94
2023-04-18T12:53:24.652Z,14.72
2023-04-18T12:54:24.628Z,14.57
2023-04-18T12:55:24.596Z,14.60
2023-04-18T12:56:24.601Z,14.46
2023-04-18T12:57:24.584Z,14.46
2023-04-18T12:58:24.571Z,14.40
2023-04-18T12:59:24.585Z,14.51
2023-04-18T13:00:24.543Z,14.68
2023-04-18T13:01:24.559Z,15.06
2023-04-18T13:02:24.639Z,15.39
2023-04-18T13:03:24.708Z,15.35
2023-04-18T13:04:24.705Z,15.60
2023-04-18T13:05:24.472Z,15.76
2023-04-18T13:06:24.469Z,15.50
2023-04-18T13:07:24.459Z,15.35
2023-04-18T13:08:24.450Z,15.36
2023-04-18T13:09:24.426Z,15.32